createdAt,value
2023-04-11T00:02:01.536Z,99878.28
2023-04-11T00:04:28.694Z,99875.16
2023-04-11T00:06:55.755Z,99864.19
2023-04-11T00:09:23.036Z,99869.78
2023-04-11T00:11:49.925Z,99874.50
2023-04-11T00:14:20.235Z,99877.41
2023-04-11T00:16:49.962Z,99883.59
2023-04-11T00:19:17.071Z,99886.69
2023-04-11T00:21:44.273Z,99884.41
2023-04-11T00:24:11.685Z,99879.00
2023-04-11T00:26:38.559Z,99878.56
2023-04-11T00:29:06.669Z,99880.84
2023-04-11T00:31:33.936Z,99881.44
2023-04-11T00:34:01.048Z,99862.59
2023-04-11T00:36:28.254Z,99864.47
2023-04-11T00:38:55.536Z,99862.19
2023-04-11T00:41:24.406Z,99862.91
2023-04-11T00:43:51.403Z,99861.00
2023-04-11T00:46:18.855Z,99868.91
2023-04-11T00:48:48.353Z,99866.50
2023-04-11T00:51:15.805Z,99871.53
2023-04-11T00:53:46.496Z,99869.09
2023-04-11T00:56:13.640Z,99867.03
2023-04-11T00:58:43.180Z,99867.66
2023-04-11T01:01:10.245Z,99871.13
2023-04-11T01:03:39.072Z,99874.19
2023-04-11T01:06:07.489Z,99877.69
2023-04-11T01:08:35.442Z,99879.34
2023-04-11T01:11:03.354Z,99879.53
2023-04-11T01:13:31.670Z,99879.34
2023-04-11T01:15:58.785Z,99884.13
2023-04-11T01:18:26.869Z,99881.84
2023-04-11T01:20:53.899Z,99877.28
2023-04-11T01:23:25.294Z,99880.13
2023-04-11T01:25:52.462Z,99878.19
2023-04-11T01:28:20.494Z,99877.16
2023-04-11T01:30:48.173Z,99878.22
2023-04-11T01:33:16.222Z,99870.22
2023-04-11T01:35:43.782Z,99887.97
2023-04-11T01:38:13.108Z,99881.03
2023-04-11T01:40:40.575Z,99875.59
2023-04-11T01:43:09.438Z,99879.16
2023-04-11T01:45:36.713Z,99878.50
2023-04-11T01:48:07.875Z,99885.84
2023-04-11T01:50:36.011Z,99879.28
2023-04-11T01:53:03.113Z,99881.69
2023-04-11T01:55:30.340Z,99874.00
2023-04-11T01:57:57.411Z,99867.66
2023-04-11T02:00:24.498Z,99868.94
2023-04-11T02:02:51.828Z,99864.00
2023-04-11T02:05:24.500Z,99857.78
2023-04-11T02:07:53.789Z,99854.09
2023-04-11T02:10:21.735Z,99846.69
2023-04-11T02:12:48.892Z,99842.81
2023-04-11T02:15:18.541Z,99839.75
2023-04-11T02:17:45.772Z,99840.38
2023-04-11T02:20:16.521Z,99839.97
2023-04-11T02:22:43.479Z,99838.69
2023-04-11T02:25:10.506Z,99836.41
2023-04-11T02:27:37.581Z,99839.53
2023-04-11T02:30:06.294Z,99839.97
2023-04-11T02:32:35.895Z,99849.94
2023-04-11T02:35:02.897Z,99831.81
2023-04-11T02:37:30.002Z,99835.53
2023-04-11T02:39:59.547Z,99831.41
2023-04-11T02:42:29.048Z,99830.28
2023-04-11T02:44:56.173Z,99832.09
2023-04-11T02:47:28.525Z,99833.75
2023-04-11T02:50:02.927Z,99838.69
2023-04-11T02:52:39.402Z,99843.50
2023-04-11T02:55:06.692Z,99835.63
2023-04-11T02:57:33.571Z,99841.84
2023-04-11T03:00:00.809Z,99841.47
2023-04-11T03:02:39.227Z,99844.34
2023-04-11T03:05:07.510Z,99839.81
2023-04-11T03:07:40.920Z,99832.22
2023-04-11T03:10:09.954Z,99833.94
2023-04-11T03:12:37.557Z,99840.75
2023-04-11T03:15:06.851Z,99837.03
2023-04-11T03:17:36.559Z,99836.03
2023-04-11T03:20:07.318Z,99834.59
2023-04-11T03:22:34.839Z,99833.59
2023-04-11T03:25:01.824Z,99831.09
2023-04-11T03:27:30.334Z,99837.72
2023-04-11T03:30:02.481Z,99833.00
2023-04-11T03:32:39.266Z,99830.34
2023-04-11T03:35:06.655Z,99833.03
2023-04-11T03:37:34.086Z,99829.97
2023-04-11T03:40:04.673Z,99833.50
2023-04-11T03:42:32.558Z,99832.44
2023-04-11T03:45:01.521Z,99826.06
2023-04-11T03:47:28.985Z,99832.28
2023-04-11T03:50:01.919Z,99832.09
2023-04-11T03:52:34.940Z,99827.31
2023-04-11T03:55:06.157Z,99845.06
2023-04-11T03:57:33.718Z,99843.00
2023-04-11T04:00:15.343Z,99844.56
2023-04-11T04:02:42.500Z,99846.00
2023-04-11T04:05:14.635Z,99839.84
2023-04-11T04:07:43.003Z,99843.59
2023-04-11T04:10:18.204Z,99842.63
2023-04-11T04:12:52.615Z,99837.72
2023-04-11T04:15:33.993Z,99839.88
2023-04-11T04:18:03.963Z,99838.47
2023-04-11T04:20:59.523Z,99831.28
2023-04-11T04:23:27.063Z,99839.19
2023-04-11T04:26:15.303Z,99843.78
2023-04-11T04:28:48.050Z,99847.53
2023-04-11T04:31:25.802Z,99838.66
2023-04-11T04:34:09.999Z,99833.72
2023-04-11T04:36:47.840Z,99833.53
2023-04-11T04:39:25.559Z,99828.59
2023-04-11T04:42:04.365Z,99826.31
2023-04-11T04:44:37.617Z,99823.22
2023-04-11T04:47:12.966Z,99830.25
2023-04-11T04:49:42.189Z,99828.19
2023-04-11T04:52:09.195Z,99827.16
2023-04-11T04:54:36.098Z,99826.13
2023-04-11T04:57:03.276Z,99826.97
2023-04-11T04:59:32.463Z,99827.38
2023-04-11T05:02:11.082Z,99826.94
2023-04-11T05:04:39.223Z,99818.03
2023-04-11T05:07:13.852Z,99825.91
2023-04-11T05:10:07.077Z,99825.66
2023-04-11T05:13:03.982Z,99807.84
2023-04-11T05:15:31.451Z,99829.31
2023-04-11T05:17:59.358Z,99816.06
2023-04-11T05:20:29.889Z,99807.16
2023-04-11T05:23:19.992Z,99807.72
2023-04-11T05:25:51.038Z,99808.50
2023-04-11T05:28:21.245Z,99807.19
2023-04-11T05:30:49.359Z,99802.22
2023-04-11T05:33:17.234Z,99803.84
2023-04-11T05:35:44.753Z,99807.69
2023-04-11T05:38:11.760Z,99796.09
2023-04-11T05:40:40.109Z,99803.03
2023-04-11T05:43:07.178Z,99797.59
2023-04-11T05:45:34.548Z,99802.72
2023-04-11T05:48:01.747Z,99805.88
2023-04-11T05:50:28.866Z,99798.72
2023-04-11T05:52:56.219Z,99808.94
2023-04-11T05:55:23.249Z,99808.50
2023-04-11T05:57:50.465Z,99789.34
2023-04-11T06:00:18.447Z,99808.81
2023-04-11T06:02:46.400Z,99797.09
2023-04-11T06:06:08.724Z,99804.28
2023-04-11T06:08:35.787Z,99797.00
2023-04-11T06:11:03.928Z,99801.16
2023-04-11T06:13:33.943Z,99800.59
2023-04-11T06:16:07.828Z,99788.69
2023-04-11T06:18:39.353Z,99785.13
2023-04-11T06:21:09.008Z,99802.13
2023-04-11T06:23:36.046Z,99801.31
2023-04-11T06:26:06.081Z,99803.59
2023-04-11T06:28:36.241Z,99796.59
2023-04-11T06:31:05.314Z,99801.53
2023-04-11T06:33:33.263Z,99797.00
2023-04-11T06:36:05.994Z,99785.34
2023-04-11T06:38:36.894Z,99779.91
2023-04-11T06:41:04.058Z,99795.13
2023-04-11T06:43:32.147Z,99785.56
2023-04-11T06:45:59.154Z,99805.84
2023-04-11T06:48:26.336Z,99805.84
2023-04-11T06:50:53.319Z,99796.44
2023-04-11T06:53:20.337Z,99794.88
2023-04-11T06:55:50.967Z,99784.94
2023-04-11T06:58:21.093Z,99799.19
2023-04-11T07:00:48.139Z,99797.16
2023-04-11T07:03:33.981Z,99794.75
2023-04-11T07:06:01.819Z,99791.69
2023-04-11T07:08:30.689Z,99780.44
2023-04-11T07:10:59.700Z,99796.28
2023-04-11T07:13:26.878Z,99788.75
2023-04-11T07:15:53.982Z,99771.25
2023-04-11T07:18:39.615Z,99780.06
2023-04-11T07:21:27.494Z,99775.09
2023-04-11T07:23:55.116Z,99776.75
2023-04-11T07:26:23.992Z,99772.84
2023-04-11T07:29:14.383Z,99740.97
2023-04-11T07:32:00.673Z,99770.53
2023-04-11T07:34:27.975Z,99768.28
2023-04-11T07:37:00.912Z,99769.53
2023-04-11T07:39:31.380Z,99763.44
2023-04-11T07:41:58.390Z,99760.00
2023-04-11T07:44:27.561Z,99756.97
2023-04-11T07:46:54.538Z,99757.66
2023-04-11T07:49:22.004Z,99761.97
2023-04-11T07:51:48.932Z,99741.03
2023-04-11T07:54:15.909Z,99745.81
2023-04-11T07:56:45.979Z,99746.34
2023-04-11T07:59:16.466Z,99743.16
2023-04-11T08:01:43.526Z,99734.81
2023-04-11T08:04:11.525Z,99749.06
2023-04-11T08:06:41.835Z,99746.25
2023-04-11T08:09:08.759Z,99736.03
2023-04-11T08:11:37.245Z,99732.31
2023-04-11T08:14:04.464Z,99725.97
2023-04-11T08:16:34.162Z,99733.69
2023-04-11T08:19:01.261Z,99728.56
2023-04-11T08:21:30.320Z,99738.78
2023-04-11T08:24:16.271Z,99727.63
2023-04-11T08:26:43.452Z,99710.25
2023-04-11T08:29:13.387Z,99716.88
2023-04-11T08:31:48.103Z,99719.66
2023-04-11T08:34:24.804Z,99712.72
2023-04-11T08:37:10.741Z,99703.22
2023-04-11T08:39:38.552Z,99714.09
2023-04-11T08:42:05.926Z,99711.47
2023-04-11T08:44:37.133Z,99712.00
2023-04-11T08:47:07.566Z,99685.31
2023-04-11T08:49:56.435Z,99700.22
2023-04-11T08:52:49.762Z,99698.84
2023-04-11T08:55:37.822Z,99696.13
2023-04-11T08:58:04.900Z,99694.69
2023-04-11T09:00:50.400Z,99684.31
2023-04-11T09:03:17.802Z,99685.88
2023-04-11T09:06:04.478Z,99685.63
2023-04-11T09:08:38.897Z,99688.56
2023-04-11T09:11:08.921Z,99684.50
2023-04-11T09:14:12.667Z,99674.72
2023-04-11T09:16:54.470Z,99688.19
2023-04-11T09:19:32.478Z,99679.56
2023-04-11T09:22:01.699Z,99677.72
2023-04-11T09:24:34.013Z,99678.56
2023-04-11T09:27:14.238Z,99669.81
2023-04-11T09:30:06.545Z,99660.47
2023-04-11T09:32:36.609Z,99679.56
2023-04-11T09:35:09.855Z,99658.44
2023-04-11T09:37:47.114Z,99649.03
2023-04-11T09:40:15.073Z,99645.09
2023-04-11T09:42:42.832Z,99636.53
2023-04-11T09:45:21.759Z,99634.97
2023-04-11T09:48:08.329Z,99629.19
2023-04-11T09:50:37.264Z,99619.91
2023-04-11T09:53:06.583Z,99624.44
2023-04-11T09:55:33.661Z,99620.22
2023-04-11T09:58:00.952Z,99634.38
2023-04-11T10:00:34.195Z,99628.41
2023-04-11T10:03:04.327Z,99604.00
2023-04-11T10:05:32.012Z,99605.25
2023-04-11T10:08:09.097Z,99596.56
2023-04-11T10:10:36.948Z,99597.63
2023-04-11T10:13:42.143Z,99579.59
2023-04-11T10:16:19.614Z,99582.03
2023-04-11T10:18:52.422Z,99574.88
2023-04-11T10:21:34.864Z,99579.13
2023-04-11T10:24:18.141Z,99583.34
2023-04-11T10:26:50.281Z,99572.88
2023-04-11T10:29:43.453Z,99575.44
2023-04-11T10:32:21.652Z,99583.28
2023-04-11T10:34:56.231Z,99562.06
2023-04-11T10:37:36.696Z,99568.03
2023-04-11T10:40:12.395Z,99551.13
2023-04-11T10:42:44.592Z,99555.38
2023-04-11T10:45:20.026Z,99549.31
2023-04-11T10:48:13.110Z,99548.41
2023-04-11T10:50:44.911Z,99543.69
2023-04-11T10:53:34.344Z,99536.53
2023-04-11T10:56:02.234Z,99528.63
2023-04-11T10:58:37.744Z,99528.88
2023-04-11T11:01:21.286Z,99532.56
2023-04-11T11:04:07.789Z,99526.22
2023-04-11T11:06:46.114Z,99523.69
2023-04-11T11:09:23.349Z,99520.03
2023-04-11T11:12:16.591Z,99522.25
2023-04-11T11:14:45.276Z,99521.97
2023-04-11T11:17:15.852Z,99518.06
2023-04-11T11:19:47.387Z,99499.47
2023-04-11T11:22:26.320Z,99506.91
2023-04-11T11:24:53.569Z,99495.22
2023-04-11T11:27:25.130Z,99493.19
2023-04-11T11:29:53.463Z,99484.94
2023-04-11T11:32:28.521Z,99486.94
2023-04-11T11:34:57.816Z,99477.59
2023-04-11T11:37:25.130Z,99479.63
2023-04-11T11:39:52.512Z,99490.72
2023-04-11T11:42:22.017Z,99486.28
2023-04-11T11:44:49.011Z,99481.66
2023-04-11T11:47:16.586Z,99481.91
2023-04-11T11:49:54.907Z,99476.47
2023-04-11T11:52:36.688Z,99474.38
2023-04-11T11:55:08.097Z,99474.03
2023-04-11T11:57:37.844Z,99463.03
2023-04-11T12:00:14.670Z,99465.00
2023-04-11T12:02:47.532Z,99465.31
2023-04-11T12:05:14.750Z,99454.16
2023-04-11T12:07:41.719Z,99468.03
2023-04-11T12:10:14.550Z,99454.69
2023-04-11T12:12:43.290Z,99455.78
2023-04-11T12:15:21.293Z,99460.88
2023-04-11T12:17:57.730Z,99448.59
2023-04-11T12:20:26.852Z,99444.84
2023-04-11T12:22:55.084Z,99437.75
2023-04-11T12:25:23.187Z,99439.91
2023-04-11T12:27:50.265Z,99439.09
2023-04-11T12:30:18.107Z,99446.47
2023-04-11T12:32:46.389Z,99441.34
2023-04-11T12:35:13.851Z,99429.09
2023-04-11T12:37:41.311Z,99434.53
2023-04-11T12:40:12.614Z,99437.53
2023-04-11T12:42:53.602Z,99448.16
2023-04-11T12:45:23.594Z,99429.22
2023-04-11T12:47:50.761Z,99420.44
2023-04-11T12:50:18.360Z,99420.50
2023-04-11T12:52:45.602Z,99422.66
2023-04-11T12:55:16.336Z,99416.09
2023-04-11T12:57:43.909Z,99406.38
2023-04-11T13:00:12.896Z,99414.56
2023-04-11T13:02:45.235Z,99418.63
2023-04-11T13:05:15.550Z,99390.06
2023-04-11T13:07:45.182Z,99402.75
2023-04-11T13:10:14.098Z,99412.84
2023-04-11T13:12:45.167Z,99399.94
2023-04-11T13:15:14.508Z,99402.25
2023-04-11T13:17:43.775Z,99401.91
2023-04-11T13:20:11.733Z,99390.50
2023-04-11T13:22:42.429Z,99403.69
2023-04-11T13:25:10.315Z,99395.38
2023-04-11T13:27:39.492Z,99395.53
2023-04-11T13:30:07.993Z,99391.34
2023-04-11T13:32:35.112Z,99389.16
2023-04-11T13:35:02.389Z,99384.59
2023-04-11T13:37:30.780Z,99390.56
2023-04-11T13:40:00.621Z,99391.63
2023-04-11T13:42:27.625Z,99373.75
2023-04-11T13:44:56.510Z,99390.34
2023-04-11T13:47:25.684Z,99389.50
2023-04-11T13:49:59.807Z,99384.88
2023-04-11T13:52:27.470Z,99366.88
2023-04-11T13:54:56.395Z,99383.25
2023-04-11T13:57:26.937Z,99384.66
2023-04-11T13:59:53.977Z,99380.47
2023-04-11T14:02:21.303Z,99365.06
2023-04-11T14:04:51.149Z,99385.13
2023-04-11T14:07:18.320Z,99380.06
2023-04-11T14:09:45.551Z,99365.38
2023-04-11T14:12:12.519Z,99367.41
2023-04-11T14:14:39.889Z,99372.84
2023-04-11T14:17:11.836Z,99367.88
2023-04-11T14:19:38.857Z,99355.69
2023-04-11T14:22:05.898Z,99371.78
2023-04-11T14:24:33.012Z,99363.19
2023-04-11T14:27:03.278Z,99364.81
2023-04-11T14:29:31.243Z,99365.28
2023-04-11T14:31:59.481Z,99366.84
2023-04-11T14:34:26.997Z,99349.06
2023-04-11T14:36:54.249Z,99361.72
2023-04-11T14:39:21.456Z,99339.50
2023-04-11T14:41:48.730Z,99346.22
2023-04-11T14:44:18.834Z,99350.88
2023-04-11T14:46:45.958Z,99353.16
2023-04-11T14:49:13.010Z,99348.19
2023-04-11T14:51:40.138Z,99349.84
2023-04-11T14:54:11.612Z,99345.38
2023-04-11T14:56:38.829Z,99339.69
2023-04-11T14:59:06.887Z,99341.75
2023-04-11T15:01:37.252Z,99338.56
2023-04-11T15:04:07.064Z,99335.22
2023-04-11T15:06:35.276Z,99335.16
2023-04-11T15:09:03.559Z,99326.38
2023-04-11T15:11:31.150Z,99341.66
2023-04-11T15:13:58.303Z,99340.56
2023-04-11T15:16:30.835Z,99329.75
2023-04-11T15:18:57.923Z,99343.44
2023-04-11T15:21:24.979Z,99346.09
2023-04-11T15:23:52.224Z,99328.81
2023-04-11T15:26:19.289Z,99342.13
2023-04-11T15:28:49.107Z,99335.81
2023-04-11T15:31:27.141Z,99341.75
2023-04-11T15:33:59.976Z,99344.66
2023-04-11T15:36:28.749Z,99345.19
2023-04-11T15:38:56.022Z,99345.19
2023-04-11T15:41:23.008Z,99341.88
2023-04-11T15:43:49.994Z,99336.66
2023-04-11T15:46:17.213Z,99344.47
2023-04-11T15:48:44.899Z,99343.09
2023-04-11T15:51:14.198Z,99338.41
2023-04-11T15:53:41.353Z,99332.94
2023-04-11T15:56:08.686Z,99336.16
2023-04-11T15:58:38.569Z,99337.19
2023-04-11T16:01:05.949Z,99334.94
2023-04-11T16:03:33.310Z,99338.59
2023-04-11T16:06:01.365Z,99337.91
2023-04-11T16:08:28.670Z,99343.44
2023-04-11T16:10:55.968Z,99330.00
2023-04-11T16:13:23.054Z,99343.56
2023-04-11T16:15:50.113Z,99333.41
2023-04-11T16:18:17.146Z,99339.72
2023-04-11T16:20:44.224Z,99347.22
2023-04-11T16:23:13.073Z,99345.66
2023-04-11T16:25:40.270Z,99343.28
2023-04-11T16:28:07.377Z,99354.75
2023-04-11T16:30:35.731Z,99347.81
2023-04-11T16:33:04.431Z,99348.75
2023-04-11T16:35:31.879Z,99361.31
2023-04-11T16:38:00.080Z,99355.50
2023-04-11T16:40:27.607Z,99357.16
2023-04-11T16:42:55.034Z,99363.16
2023-04-11T16:45:22.201Z,99354.94
2023-04-11T16:47:50.882Z,99357.72
2023-04-11T16:50:18.133Z,99371.84
2023-04-11T16:53:04.266Z,99369.97
2023-04-11T16:55:50.540Z,99365.06
2023-04-11T16:58:18.363Z,99369.19
2023-04-11T17:01:04.095Z,99361.34
2023-04-11T17:03:31.323Z,99360.69
2023-04-11T17:05:58.351Z,99368.34
2023-04-11T17:08:26.847Z,99373.06
2023-04-11T17:10:54.197Z,99375.56
2023-04-11T17:13:32.118Z,99376.19
2023-04-11T17:16:05.462Z,99363.53
2023-04-11T17:18:41.578Z,99359.31
2023-04-11T17:21:11.719Z,99371.09
2023-04-11T17:23:42.310Z,99371.66
2023-04-11T17:26:13.548Z,99374.25
2023-04-11T17:28:41.114Z,99387.41
2023-04-11T17:31:17.594Z,99366.72
2023-04-11T17:33:45.114Z,99372.38
2023-04-11T17:36:13.150Z,99373.19
2023-04-11T17:38:43.622Z,99371.91
2023-04-11T17:41:14.815Z,99365.00
2023-04-11T17:43:43.816Z,99377.34
2023-04-11T17:46:10.928Z,99371.13
2023-04-11T17:48:41.113Z,99371.13
2023-04-11T17:51:08.553Z,99366.75
2023-04-11T17:53:37.160Z,99370.53
2023-04-11T17:56:06.182Z,99369.00
2023-04-11T17:58:34.174Z,99372.06
2023-04-11T18:01:03.858Z,99367.72
2023-04-11T18:03:50.646Z,99357.72
2023-04-11T18:06:36.263Z,99362.09
2023-04-11T18:09:05.924Z,99361.38
2023-04-11T18:11:33.156Z,99363.72
2023-04-11T18:14:01.039Z,99363.59
2023-04-11T18:16:29.402Z,99363.47
2023-04-11T18:18:57.064Z,99353.00
2023-04-11T18:21:26.854Z,99358.84
2023-04-11T18:23:54.054Z,99351.13
2023-04-11T18:26:21.382Z,99367.63
2023-04-11T18:28:48.429Z,99354.03
2023-04-11T18:31:15.841Z,99360.72
2023-04-11T18:33:46.120Z,99367.28
2023-04-11T18:36:17.883Z,99362.94
2023-04-11T18:38:45.444Z,99361.38
2023-04-11T18:43:57.643Z,99350.81
2023-04-11T18:46:24.794Z,99357.38
2023-04-11T18:48:56.767Z,99360.31
2023-04-11T18:51:23.817Z,99350.16
2023-04-11T18:53:56.670Z,99358.63
2023-04-11T18:56:23.878Z,99354.75
2023-04-11T19:01:18.459Z,99354.75
2023-04-11T19:03:47.149Z,99351.31
2023-04-11T19:06:15.164Z,99359.84
2023-04-11T19:09:00.794Z,99345.50
2023-04-11T19:11:31.271Z,99352.84
2023-04-11T19:14:02.223Z,99349.69
2023-04-11T19:16:33.489Z,99341.41
2023-04-11T19:19:01.302Z,99354.28
2023-04-11T19:21:36.956Z,99346.53
2023-04-11T19:27:21.728Z,99339.00
2023-04-11T19:29:52.993Z,99351.03
2023-04-11T19:32:22.464Z,99343.63
2023-04-11T19:34:50.487Z,99350.94
2023-04-11T19:37:19.525Z,99334.19
2023-04-11T19:39:47.551Z,99348.09
2023-04-11T19:42:16.652Z,99352.28
2023-04-11T19:44:43.688Z,99352.16
2023-04-11T19:47:11.007Z,99355.50
2023-04-11T19:49:40.730Z,99347.94
2023-04-11T19:52:07.854Z,99352.56
2023-04-11T19:54:34.791Z,99349.88
2023-04-11T19:57:02.263Z,99358.84
2023-04-11T19:59:29.898Z,99365.50
2023-04-11T20:02:01.692Z,99368.25
2023-04-11T20:04:30.404Z,99355.41
2023-04-11T20:07:00.829Z,99362.66
2023-04-11T20:09:35.376Z,99351.06
2023-04-11T20:12:06.969Z,99363.13
2023-04-11T20:14:39.268Z,99355.09
2023-04-11T20:17:10.780Z,99362.19
2023-04-11T20:19:39.318Z,99374.19
2023-04-11T20:22:18.455Z,99372.97
2023-04-11T20:24:47.577Z,99364.00
2023-04-11T20:27:17.404Z,99367.72
2023-04-11T20:29:44.654Z,99372.09
2023-04-11T20:32:14.254Z,99359.50
2023-04-11T20:34:47.438Z,99379.81
2023-04-11T20:37:34.531Z,99370.69
2023-04-11T20:40:07.365Z,99376.53
2023-04-11T20:42:56.406Z,99379.81
2023-04-11T20:45:28.727Z,99381.09
2023-04-11T20:48:14.273Z,99372.25
2023-04-11T20:50:42.149Z,99382.56
2023-04-11T20:53:09.129Z,99378.41
2023-04-11T20:55:39.265Z,99369.16
2023-04-11T20:58:24.832Z,99375.13
2023-04-11T21:01:32.789Z,99377.38
2023-04-11T21:04:04.299Z,99377.38
2023-04-11T21:06:36.582Z,99378.44
2023-04-11T21:09:07.127Z,99383.16
2023-04-11T21:12:12.209Z,99387.88
2023-04-11T21:14:39.358Z,99371.97
2023-04-11T21:17:07.564Z,99377.28
2023-04-11T21:19:53.069Z,99391.41
2023-04-11T21:22:22.274Z,99378.44
2023-04-11T21:25:26.197Z,99382.16
2023-04-11T21:28:11.931Z,99386.72
2023-04-11T21:30:39.685Z,99385.44
2023-04-11T21:33:06.829Z,99379.69
2023-04-11T21:35:55.805Z,99388.94
2023-04-11T21:38:41.768Z,99383.25
2023-04-11T21:41:17.698Z,99376.88
2023-04-11T21:44:22.029Z,99385.38
2023-04-11T21:46:50.489Z,99381.88
2023-04-11T21:49:54.919Z,99385.34
2023-04-11T21:52:21.916Z,99379.19
2023-04-11T21:54:48.933Z,99385.81
2023-04-11T21:57:16.081Z,99389.97
2023-04-11T22:00:21.087Z,99386.91
2023-04-11T22:03:11.907Z,99385.50
2023-04-11T22:05:42.856Z,99388.47
2023-04-11T22:08:50.840Z,99390.72
2023-04-11T22:11:18.304Z,99394.22
2023-04-11T22:13:46.647Z,99388.03
2023-04-11T22:16:32.364Z,99394.03
2023-04-11T22:19:00.678Z,99382.94
2023-04-11T22:21:28.711Z,99384.44
2023-04-11T22:23:57.197Z,99382.38
2023-04-11T22:26:34.334Z,99378.25
2023-04-11T22:29:06.072Z,99382.38
2023-04-11T22:31:38.622Z,99388.19
2023-04-11T22:34:08.455Z,99385.72
2023-04-11T22:36:54.033Z,99387.34
2023-04-11T22:39:22.131Z,99377.22
2023-04-11T22:41:50.680Z,99374.34
2023-04-11T22:44:36.503Z,99371.91
2023-04-11T22:47:30.145Z,99367.16
2023-04-11T22:49:58.067Z,99374.97
2023-04-11T22:52:43.617Z,99373.34
2023-04-11T22:55:16.305Z,99376.22
2023-04-11T22:57:43.194Z,99367.81
2023-04-11T23:00:30.086Z,99370.31
2023-04-11T23:03:15.855Z,99367.22
2023-04-11T23:05:42.947Z,99364.94
2023-04-11T23:08:10.260Z,99369.13
2023-04-11T23:10:39.256Z,99373.69
2023-04-11T23:13:09.362Z,99369.56
2023-04-11T23:15:37.436Z,99367.75
2023-04-11T23:18:04.630Z,99364.88
2023-04-11T23:20:39.121Z,99367.38
2023-04-11T23:23:07.101Z,99366.34
2023-04-11T23:25:37.469Z,99364.09
2023-04-11T23:28:04.390Z,99368.03
2023-04-11T23:30:31.450Z,99363.91
2023-04-11T23:32:58.540Z,99368.63
2023-04-11T23:35:26.200Z,99370.06
2023-04-11T23:37:53.098Z,99372.53
2023-04-11T23:40:23.114Z,99367.81
2023-04-11T23:42:50.112Z,99369.47
2023-04-11T23:45:20.599Z,99367.00
2023-04-11T23:47:48.539Z,99366.16
2023-04-11T23:50:15.922Z,99365.16
2023-04-11T23:52:45.427Z,99367.00
2023-04-11T23:55:12.877Z,99368.69
2023-04-11T23:57:41.197Z,99372.56
